Latest Coastal Weather Observations for Merimbula

IDN60701

Issued at 6:41 am EST Saturday 27 May 2017 (issued every 10 minutes, with the page automatically refreshed every 10 minutes)

About coastal observations | Map of coastal stations | Coastal observations for NSW | Marine services | Other Formats
Station Details ID: 069147 Name: MERIMBULA AIRPORT AWS Lat: -36.91 Lon: 149.90 Height: 1.5 m
Data from the previous 72 hours. | See also: Recent months at Merimbula
Date/Time
EST
Temp
°C
Wind Pressure Rain since
9am
mm
Weather Cloud Vis
km
Sea
Height
m
Swell
Dir  Spd
kts
Gust
kts
hPa Trend Height
m
Period
s
Dir
27/06:30am 7.6 CALM 0 0 1020.9 - 0.0 - - 10 - - - -
27/06:26am 7.5 CALM 0 0 1020.9 - 0.0 - - 10 - - - -
27/06:00am 6.9 CALM 0 0 1020.7 - 0.0 - - 5 - - - -
27/05:40am 7.2 CALM 0 0 1020.8 - 0.0 - - 5 - - - -
27/05:30am 7.4 CALM 0 0 1020.8 - 0.0 - - 9 - - - -
27/05:00am 7.8 CALM 0 0 1020.9 - 0.0 - - 10 - - - -
27/04:30am 8.1 CALM 0 0 1020.9 - 0.0 - - 10 - - - -
27/04:00am 8.4 CALM 0 0 1020.9 - 0.0 - - 10 - - - -
27/03:30am 8.7 CALM 0 0 1021.0 - 0.0 - - 10 - - - -
27/03:00am 8.9 CALM 0 0 1021.2 - 0.0 - - 10 - - - -
27/02:30am 8.8 CALM 0 0 1021.4 - 0.0 - - 10 - - - -
27/02:00am 9.5 CALM 0 0 1021.6 - 0.0 - - 10 - - - -
27/01:30am 9.7 CALM 0 0 1021.7 - 0.0 - - 10 - - - -
27/01:00am 10.3 CALM 0 0 1021.7 - 0.0 - - 10 - - - -
27/12:30am 11.0 CALM 0 0 1022.0 - 0.0 - - 10 - - - -
27/12:00am 10.8 CALM 0 0 1022.1 - 0.0 - - 10 - - - -
 
Date/Time
EST
Temp
°C
Wind Pressure Rain since
9am
mm
Weather Cloud Vis
km
Sea
Height
m
Swell
Dir  Spd
kts
Gust
kts
hPa Trend Height
m
Period
s
Dir
26/11:30pm 11.6 CALM 0 0 1022.2 - 0.0 - - 10 - - - -
26/11:00pm 10.9 CALM 0 0 1022.2 - 0.0 - - 10 - - - -
26/10:30pm 11.2 CALM 0 0 1022.1 - 0.0 - - 10 - - - -
26/10:00pm 10.7 CALM 0 0 1022.3 - 0.0 - - 10 - - - -
26/09:30pm 10.0 CALM 0 0 1022.4 - 0.0 - - 10 - - - -
26/09:00pm 9.7 CALM 0 0 1022.4 - 0.0 - - 10 - - - -
26/08:30pm 10.4 CALM 0 0 1022.2 - 0.0 - - 10 - - - -
26/08:00pm 10.9 CALM 0 0 1022.1 - 0.0 - - 10 - - - -
26/07:30pm 12.0 CALM 0 0 1021.9 - 0.0 - - 10 - - - -
26/07:00pm 12.6 CALM 0 0 1021.8 - 0.0 - - 10 - - - -
26/06:30pm 13.5 CALM 0 0 1021.5 - 0.0 - - 10 - - - -
26/06:00pm 13.9 CALM 0 0 1021.4 - 0.0 - - 10 - - - -
26/05:30pm 15.1 SSE 5 8 1020.9 - 0.0 - - 10 - - - -
26/05:00pm 15.2 S 5 7 1020.6 - 0.0 - - 10 - - - -
26/04:30pm 16.4 SSE 6 8 1020.3 - 0.0 - - 10 - - - -
26/04:00pm 18.2 SE 1 5 1020.2 - 0.0 - - 10 - - - -
26/03:30pm 18.3 WNW 5 6 1020.0 - 0.0 - - 10 - - - -
26/03:00pm 19.0 SE 1 5 1019.7 - 0.0 - - 10 - - - -
26/02:30pm 18.3 SE 3 5 1019.8 - 0.0 - - 10 - - - -
26/02:00pm 17.8 ESE 5 8 1019.9 - 0.0 - - 10 - - - -
26/01:30pm 17.6 SE 5 8 1020.2 - 0.0 - - 10 - - - -
26/01:00pm 17.7 ESE 6 9 1020.2 - 0.0 - - 10 - - - -
26/12:30pm 18.9 SE 9 11 1020.5 - 0.0 - - 10 - - - -
26/12:00pm 18.6 ESE 7 11 1020.5 - 0.0 - - 10 - - - -
26/11:30am 18.6 ESE 7 11 1020.8 - 0.0 - - 10 - - - -
26/11:00am 19.5 NW 4 6 1020.9 - 0.0 - - 10 - - - -
26/10:30am 18.6 WNW 5 7 1021.2 - 0.0 - - 10 - - - -
26/10:00am 17.5 W 5 9 1021.3 - 0.0 - - 10 - - - -
26/09:30am 15.7 CALM 0 4 1021.1 - 0.0 - - 10 - - - -
26/09:00am 14.0 NNW 4 5 1021.0 - 0.0 - - 10 - - - -
26/08:30am 12.0 WNW 4 6 1021.0 - 0.0 - - 10 - - - -
26/08:00am 9.2 W 1 4 1020.7 - 0.0 - - 10 - - - -
26/07:30am 7.6 NNE 3 4 1020.6 - 0.0 - - 10 - - - -
26/07:00am 6.6 NW 2 6 1020.1 - 0.0 - - 10 - - - -
26/06:30am 6.9 CALM 0 0 1019.8 - 0.0 - - 10 - - - -
26/06:00am 7.0 CALM 0 0 1019.5 - 0.0 - - 10 - - - -
26/05:30am 7.1 CALM 0 0 1019.4 - 0.0 - - 10 - - - -
26/05:00am 7.5 CALM 0 0 1019.1 - 0.0 - - 10 - - - -
26/04:30am 8.8 WNW 3 4 1019.1 - 0.0 - - 10 - - - -
26/04:00am 9.3 NW 5 7 1019.1 - 0.0 - - 10 - - - -
26/03:30am 9.6 NW 5 6 1019.1 - 0.0 - - 10 - - - -
26/03:00am 10.1 NW 5 7 1019.2 - 0.0 - - 10 - - - -
26/02:30am 9.3 NW 1 4 1019.2 - 0.0 - - 10 - - - -
26/02:00am 9.6 NW 3 7 1019.2 - 0.0 - - 10 - - - -
26/01:30am 8.9 CALM 0 0 1019.3 - 0.0 - - 10 - - - -
26/01:00am 8.2 CALM 0 0 1019.3 - 0.0 - - 10 - - - -
26/12:30am 8.4 CALM 0 0 1019.4 - 0.0 - - 10 - - - -
26/12:00am 8.5 CALM 0 0 1019.5 - 0.0 - - 10 - - - -
 
Date/Time
EST
Temp
°C
Wind Pressure Rain since
9am
mm
Weather Cloud Vis
km
Sea
Height
m
Swell
Dir  Spd
kts
Gust
kts
hPa Trend Height
m
Period
s
Dir
25/11:30pm 8.4 CALM 0 0 1019.5 - 0.0 - - 10 - - - -
25/11:00pm 8.1 CALM 0 0 1019.6 - 0.0 - - 10 - - - -
25/10:30pm 8.8 CALM 0 0 1019.5 - 0.0 - - 10 - - - -
25/10:00pm 8.1 CALM 0 0 1019.7 - 0.0 - - 10 - - - -
25/09:30pm 8.5 CALM 0 0 1019.7 - 0.0 - - 10 - - - -
25/09:00pm 8.8 CALM 0 0 1019.5 - 0.0 - - 10 - - - -
25/08:30pm 8.2 CALM 0 0 1019.2 - 0.0 - - 10 - - - -
25/08:00pm 9.2 CALM 0 0 1019.2 - 0.0 - - 10 - - - -
25/07:30pm 9.3 CALM 0 0 1019.1 - 0.0 - - 10 - - - -
25/07:00pm 9.4 CALM 0 0 1019.1 - 0.0 - - 10 - - - -
25/06:30pm 10.0 CALM 0 0 1018.9 - 0.0 - - 10 - - - -
25/06:00pm 10.5 CALM 0 0 1018.7 - 0.0 - - 10 - - - -
25/05:30pm 11.9 CALM 0 0 1018.4 - 0.0 - - 10 - - - -
25/05:00pm 13.4 CALM 0 0 1018.1 - 0.0 - - 10 - - - -
25/04:30pm 15.9 NNE 3 5 1018.1 - 0.0 - - 10 - - - -
25/04:00pm 17.0 NNE 4 6 1017.9 - 0.0 - - 10 - - - -
25/03:30pm 17.4 NNE 5 7 1017.8 - 0.0 - - 10 - - - -
25/03:00pm 18.0 NE 5 7 1017.6 - 0.0 - - 10 - - - -
25/02:30pm 17.7 ENE 6 8 1017.7 - 0.0 - - 10 - - - -
25/02:00pm 18.3 ENE 6 9 1017.8 - 0.0 - - 10 - - - -
25/01:30pm 18.4 ENE 7 9 1018.3 - 0.0 - - 10 - - - -
25/01:00pm 18.7 ENE 6 9 1018.4 - 0.0 - - 10 - - - -
25/12:30pm 19.0 SW 4 6 1018.6 - 0.0 - - 10 - - - -
25/12:00pm 18.8 W 3 7 1018.9 - 0.0 - - 10 - - - -
25/11:30am 18.3 WNW 7 9 1019.6 - 0.0 - - 10 - - - -
25/11:00am 17.7 W 7 11 1019.9 - 0.0 - - 10 - - - -
25/10:30am 17.4 W 7 11 1020.3 - 0.0 - - 10 - - - -
25/10:00am 16.6 WNW 5 9 1020.4 - 0.0 - - 10 - - - -
25/09:30am 15.2 NNW 2 4 1020.4 - 0.0 - - 10 - - - -
25/09:00am 12.9 NNW 1 5 1020.5 - 0.2 - - 10 - - - -
25/08:30am 9.5 WSW 2 5 1020.5 - 0.2 - - 10 - - - -
25/08:00am 7.2 SW 4 6 1020.3 - 0.2 - - 10 - - - -
25/07:30am 5.9 CALM 0 3 1019.9 - 0.2 - - 10 - - - -
25/07:00am 5.5 WSW 2 5 1019.7 - 0.0 - - 10 - - - -
25/06:30am 5.8 SW 5 6 1019.4 - 0.0 - - 10 - - - -
25/06:00am 5.4 SW 3 5 1019.0 - 0.0 - - 10 - - - -
25/05:30am 5.9 SW 5 5 1018.8 - 0.0 - - 10 - - - -
25/05:00am 6.0 SW 5 5 1018.6 - 0.0 - - 10 - - - -
25/04:30am 6.1 WSW 4 6 1018.5 - 0.0 - - 10 - - - -
25/04:00am 7.6 NW 5 7 1018.2 - 0.0 - - 10 - - - -
25/03:30am 6.2 CALM 0 0 1018.1 - 0.0 - - 10 - - - -
25/03:00am 6.8 CALM 0 0 1018.2 - 0.0 - - 10 - - - -
25/02:30am 8.0 W 1 4 1018.3 - 0.0 - - 10 - - - -
25/02:00am 10.5 WNW 8 10 1018.2 - 0.0 - - 10 - - - -
25/01:30am 9.9 WNW 7 10 1018.0 - 0.0 - - 10 - - - -
25/01:00am 8.2 WNW 3 7 1018.1 - 0.0 - - 10 - - - -
25/12:30am 7.5 CALM 0 0 1018.2 - 0.0 - - 10 - - - -
25/12:00am 7.5 CALM 0 0 1018.4 - 0.0 - - 10 - - - -
 
Date/Time
EST
Temp
°C
Wind Pressure Rain since
9am
mm
Weather Cloud Vis
km
Sea
Height
m
Swell
Dir  Spd
kts
Gust
kts
hPa Trend Height
m
Period
s
Dir
24/11:30pm 8.0 CALM 0 0 1018.3 - 0.0 - - 10 - - - -
24/11:00pm 8.3 CALM 0 0 1018.2 - 0.0 - - 10 - - - -
24/10:30pm 9.4 NNW 3 5 1018.2 - 0.0 - - 10 - - - -
24/10:00pm 10.2 NW 4 6 1018.1 - 0.0 - - 10 - - - -
24/09:30pm 10.2 NW 4 6 1018.0 - 0.0 - - 10 - - - -
24/09:00pm 10.6 WSW 4 5 1017.6 - 0.0 - - 10 - - - -
24/08:30pm 10.6 SSW 5 7 1017.4 - 0.0 - - 10 - - - -
24/08:00pm 10.5 SSW 3 5 1017.0 - 0.0 - - 10 - - - -
24/07:30pm 11.4 SW 1 4 1016.7 - 0.0 - - 10 - - - -
24/07:00pm 12.5 SSW 3 4 1016.3 - 0.0 - - 10 - - - -
24/06:30pm 13.7 SSW 4 5 1015.9 - 0.0 - - 10 - - - -
24/06:00pm 14.1 SSW 4 6 1015.4 - 0.0 - - 10 - - - -
24/05:30pm 14.7 SSW 5 8 1014.7 - 0.0 - - 10 - - - -
24/05:00pm 15.1 S 3 6 1013.9 - 0.0 - - 10 - - - -
24/04:30pm 16.9 S 6 9 1013.4 - 0.0 - - 10 - - - -
24/04:00pm 17.9 SSE 6 9 1012.8 - 0.0 - - 10 - - - -
24/03:30pm 17.8 ESE 6 10 1012.2 - 0.0 - - 10 - - - -
24/03:00pm 18.8 SSE 5 8 1011.9 - 0.0 - - 10 - - - -
24/02:30pm 19.0 SSW 4 7 1011.4 - 0.0 - - 10 - - - -
24/02:00pm 18.8 SSE 7 10 1011.0 - 0.0 - - 10 - - - -
24/01:30pm 18.2 SSW 9 13 1011.0 - 0.0 - - 10 - - - -
24/01:00pm 16.5 S 10 14 1010.8 - 0.0 - - 10 - - - -
24/12:30pm 21.1 W 6 12 1010.8 - 0.0 - - 10 - - - -
24/12:00pm 19.9 WSW 5 10 1011.0 - 0.0 - - 10 - - - -
24/11:30am 20.5 WSW 7 12 1011.3 - 0.0 - - 10 - - - -
24/11:00am 19.7 W 8 14 1011.6 - 0.0 - - 10 - - - -
24/10:30am 18.6 WSW 9 14 1011.5 - 0.0 - - 10 - - - -
24/10:00am 17.5 W 9 13 1011.7 - 0.0 - - 10 - - - -
24/09:30am 16.3 WSW 7 10 1011.6 - 0.0 - - 10 - - - -
24/09:00am 13.8 NW 2 6 1011.6 - - - - 10 - - - -
24/08:30am 12.8 WNW 4 7 1011.9 - - - - 10 - - - -
24/08:00am 12.1 WSW 5 9 1011.8 - - - - 10 - - - -
24/07:30am 11.8 SW 5 6 1012.0 - - - - 10 - - - -
24/07:00am 12.0 WNW 6 9 1012.0 - - - - 10 - - - -

Other Formats:

Comma delimited format used in spreadsheet applications
http://www.bom.gov.au/fwo/IDN60701/IDN60701.95929.axf

JavaScript Object Notation format (JSON) in row-major order
http://www.bom.gov.au/fwo/IDN60701/IDN60701.95929.json